createdAt,value
2019-02-23T00:02:09.674Z,45.10
2019-02-23T00:04:39.666Z,49.33
2019-02-23T00:07:09.709Z,50.90
2019-02-23T00:09:39.711Z,29.82
2019-02-23T00:12:09.736Z,13.93
2019-02-23T00:14:39.933Z,12.28
2019-02-23T00:17:10.234Z,22.42
2019-02-23T00:19:40.442Z,29.82
2019-02-23T00:22:10.968Z,26.37
2019-02-23T00:24:40.589Z,28.77
2019-02-23T00:27:10.738Z,32.38
2019-02-23T00:29:40.955Z,30.95
2019-02-23T00:32:11.242Z,31.73
2019-02-23T00:34:41.901Z,14.45
2019-02-23T00:37:12.365Z,28.67
2019-02-23T00:39:42.944Z,33.90
2019-02-23T00:42:13.154Z,21.50
2019-02-23T00:44:43.465Z,13.30
2019-02-23T00:47:13.699Z,24.10
2019-02-23T00:49:44.069Z,18.10
2019-02-23T00:52:14.587Z,22.10
2019-02-23T00:54:44.764Z,19.55
2019-02-23T00:57:14.392Z,18.07
2019-02-23T00:59:44.483Z,25.95
2019-02-23T01:02:14.822Z,34.65
2019-02-23T01:04:45.278Z,31.35
2019-02-23T01:07:15.811Z,22.58
2019-02-23T01:09:46.119Z,15.70
2019-02-23T01:12:16.359Z,15.65
2019-02-23T01:14:46.803Z,16.15
2019-02-23T01:17:17.175Z,15.30
2019-02-23T01:19:48.181Z,16.73
2019-02-23T01:22:17.902Z,21.40
2019-02-23T01:24:48.354Z,12.75
2019-02-23T01:27:18.646Z,22.25
2019-02-23T01:29:48.944Z,22.82
2019-02-23T01:32:19.368Z,14.58
2019-02-23T01:34:49.832Z,15.35
2019-02-23T01:37:19.859Z,13.20
2019-02-23T01:39:50.109Z,16.42
2019-02-23T01:42:20.411Z,15.88
2019-02-23T01:44:50.805Z,9.75
2019-02-23T01:47:21.519Z,12.15
2019-02-23T01:49:58.739Z,11.70
2019-02-23T01:52:22.799Z,11.03
2019-02-23T01:54:53.268Z,14.70
2019-02-23T01:57:23.554Z,15.05
2019-02-23T01:59:53.866Z,11.48
2019-02-23T02:02:24.203Z,13.83
2019-02-23T02:04:54.511Z,14.47
2019-02-23T02:07:24.907Z,21.25
2019-02-23T02:09:55.439Z,20.95
2019-02-23T02:12:25.801Z,31.05
2019-02-23T02:14:56.207Z,20.08
2019-02-23T02:17:26.609Z,22.35
2019-02-23T02:19:56.935Z,20.17
2019-02-23T02:22:27.264Z,20.80
2019-02-23T02:24:57.551Z,14.63
2019-02-23T02:27:27.814Z,16.35
2019-02-23T02:29:58.251Z,17.67
2019-02-23T02:32:28.735Z,15.65
2019-02-23T02:34:59.079Z,13.90
2019-02-23T02:37:29.530Z,16.60
2019-02-23T02:39:59.940Z,14.15
2019-02-23T02:42:30.434Z,14.55
2019-02-23T02:45:00.710Z,34.45
2019-02-23T02:47:31.051Z,25.57
2019-02-23T02:50:01.570Z,20.48
2019-02-23T02:52:32.016Z,20.72
2019-02-23T02:55:01.747Z,16.40
2019-02-23T02:57:32.104Z,22.60
2019-02-23T03:00:02.639Z,16.52
2019-02-23T03:02:32.982Z,13.55
2019-02-23T03:05:03.488Z,19.57
2019-02-23T03:07:33.747Z,22.37
2019-02-23T03:10:04.251Z,21.33
2019-02-23T03:12:34.665Z,16.90
2019-02-23T03:15:05.260Z,18.60
2019-02-23T03:17:34.853Z,19.20
2019-02-23T03:20:05.529Z,16.02
2019-02-23T03:22:36.019Z,18.85
2019-02-23T03:25:06.780Z,18.02
2019-02-23T03:27:37.027Z,18.42
2019-02-23T03:30:08.897Z,19.23
2019-02-23T03:32:39.318Z,24.35
2019-02-23T03:35:10.131Z,19.87
2019-02-23T03:37:40.366Z,20.80
2019-02-23T03:40:10.995Z,22.65
2019-02-23T03:42:41.486Z,23.45
2019-02-23T03:45:12.192Z,19.77
2019-02-23T03:47:42.569Z,19.12
2019-02-23T03:50:12.950Z,21.27
2019-02-23T03:52:43.470Z,21.15
2019-02-23T03:55:13.922Z,19.40
2019-02-23T03:57:44.350Z,18.02
2019-02-23T04:00:14.803Z,21.82
2019-02-23T04:02:45.111Z,26.42
2019-02-23T04:05:15.427Z,21.23
2019-02-23T04:07:45.795Z,29.67
2019-02-23T04:10:16.303Z,41.55
2019-02-23T04:12:46.507Z,27.25
2019-02-23T04:15:16.955Z,26.68
2019-02-23T04:17:47.456Z,22.27
2019-02-23T04:20:17.812Z,23.55
2019-02-23T04:22:48.066Z,21.62
2019-02-23T04:25:18.557Z,18.10
2019-02-23T04:27:48.727Z,15.98
2019-02-23T04:30:18.958Z,16.85
2019-02-23T04:32:49.395Z,16.87
2019-02-23T04:35:19.923Z,13.48
2019-02-23T04:37:50.360Z,14.53
2019-02-23T04:40:20.191Z,23.85
2019-02-23T04:42:50.562Z,10.43
2019-02-23T04:45:20.968Z,15.53
2019-02-23T04:47:51.350Z,11.33
2019-02-23T04:50:21.681Z,13.18
2019-02-23T04:52:52.199Z,18.12
2019-02-23T04:55:22.684Z,21.20
2019-02-23T04:57:53.059Z,18.60
2019-02-23T05:00:23.481Z,19.27
2019-02-23T05:02:53.742Z,21.25
2019-02-23T05:05:24.175Z,17.50
2019-02-23T05:07:54.824Z,15.45
2019-02-23T05:10:25.101Z,17.27
2019-02-23T05:12:55.376Z,14.53
2019-02-23T05:15:25.852Z,16.20
2019-02-23T05:17:56.016Z,15.23
2019-02-23T05:20:26.405Z,10.80
2019-02-23T05:22:56.674Z,17.60
2019-02-23T05:25:27.025Z,19.20
2019-02-23T05:27:57.414Z,20.55
2019-02-23T05:30:27.894Z,18.42
2019-02-23T05:32:58.308Z,22.55
2019-02-23T05:35:28.676Z,17.32
2019-02-23T05:37:59.054Z,38.67
2019-02-23T05:40:29.462Z,45.90
2019-02-23T05:43:01.169Z,54.80
2019-02-23T05:45:30.352Z,41.90
2019-02-23T05:48:00.595Z,53.50
2019-02-23T05:50:31.224Z,39.53
2019-02-23T05:53:01.450Z,42.60
2019-02-23T05:55:31.789Z,37.88
2019-02-23T05:58:02.347Z,45.28
2019-02-23T06:00:32.707Z,34.85
2019-02-23T06:03:03.116Z,28.70
2019-02-23T06:05:33.466Z,21.82
2019-02-23T06:08:04.065Z,25.08
2019-02-23T06:10:34.413Z,35.52
2019-02-23T06:13:04.821Z,24.67
2019-02-23T06:15:35.242Z,22.37
2019-02-23T06:18:05.571Z,32.48
2019-02-23T06:20:35.863Z,35.92
2019-02-23T06:23:05.622Z,34.83
2019-02-23T06:25:35.771Z,35.70
2019-02-23T06:28:06.110Z,32.88
2019-02-23T06:30:36.498Z,35.70
2019-02-23T06:33:06.702Z,37.48
2019-02-23T06:35:37.219Z,28.32
2019-02-23T06:38:07.547Z,33.63
2019-02-23T06:40:37.993Z,33.58
2019-02-23T06:43:08.259Z,27.82
2019-02-23T06:45:38.745Z,21.37
2019-02-23T06:48:08.942Z,19.62
2019-02-23T06:50:39.260Z,34.08
2019-02-23T06:53:09.562Z,26.82
2019-02-23T06:55:39.962Z,28.05
2019-02-23T06:58:10.310Z,37.42
2019-02-23T07:00:40.836Z,53.78
2019-02-23T07:03:11.304Z,72.42
2019-02-23T07:05:41.595Z,46.83
2019-02-23T07:08:12.048Z,40.95
2019-02-23T07:10:42.483Z,28.42
2019-02-23T07:13:12.894Z,20.97
2019-02-23T07:15:43.243Z,24.85
2019-02-23T07:18:13.513Z,28.62
2019-02-23T07:20:44.725Z,18.77
2019-02-23T07:23:14.228Z,16.00
2019-02-23T07:25:44.549Z,17.17
2019-02-23T07:28:14.847Z,17.85
2019-02-23T07:30:45.454Z,24.02
2019-02-23T07:33:15.763Z,9.43
2019-02-23T07:35:46.150Z,18.00
2019-02-23T07:38:16.487Z,13.45
2019-02-23T07:40:46.775Z,15.63
2019-02-23T07:43:17.059Z,10.63
2019-02-23T07:45:47.539Z,11.90
2019-02-23T07:48:17.832Z,11.95
2019-02-23T07:50:48.114Z,17.95
2019-02-23T07:53:18.463Z,17.52
2019-02-23T07:55:48.327Z,18.07
2019-02-23T07:58:19.234Z,18.65
2019-02-23T08:00:49.664Z,15.97
2019-02-23T08:03:20.124Z,13.32
2019-02-23T08:05:50.414Z,14.23
2019-02-23T08:08:20.811Z,13.47
2019-02-23T08:10:51.195Z,13.20
2019-02-23T08:13:21.411Z,11.67
2019-02-23T08:15:51.799Z,13.30
2019-02-23T08:18:22.106Z,15.73
2019-02-23T08:20:52.476Z,13.60
2019-02-23T08:23:22.857Z,15.37
2019-02-23T08:25:53.143Z,12.47
2019-02-23T08:28:23.458Z,11.30
2019-02-23T08:30:53.947Z,11.80
2019-02-23T08:33:23.665Z,9.37
2019-02-23T08:35:54.013Z,12.33
2019-02-23T08:38:24.295Z,8.97
2019-02-23T08:40:54.612Z,8.90
2019-02-23T08:43:24.908Z,11.03
2019-02-23T08:45:55.567Z,9.73
2019-02-23T08:48:26.581Z,9.03
2019-02-23T08:50:56.908Z,9.73
2019-02-23T08:53:27.209Z,11.03
2019-02-23T08:55:57.613Z,11.03
2019-02-23T08:58:27.876Z,12.53
2019-02-23T09:00:58.238Z,13.93
2019-02-23T09:03:28.562Z,13.70
2019-02-23T09:05:58.931Z,12.27
2019-02-23T09:08:29.304Z,11.23
2019-02-23T09:10:59.580Z,9.60
2019-02-23T09:13:29.867Z,9.07
2019-02-23T09:16:00.226Z,11.23
2019-02-23T09:18:30.448Z,13.57
2019-02-23T09:21:00.630Z,10.67
2019-02-23T09:23:31.147Z,10.53
2019-02-23T09:26:01.466Z,12.23
2019-02-23T09:28:31.892Z,11.70
2019-02-23T09:31:03.609Z,11.43
2019-02-23T09:33:33.128Z,11.23
2019-02-23T09:36:03.636Z,12.97
2019-02-23T09:38:33.838Z,9.33
2019-02-23T09:41:04.255Z,13.97
2019-02-23T09:43:34.487Z,10.03
2019-02-23T09:46:04.777Z,10.30
2019-02-23T09:48:35.099Z,13.37
2019-02-23T09:51:05.598Z,13.10
2019-02-23T09:53:35.927Z,15.43
2019-02-23T09:56:06.127Z,9.47
2019-02-23T09:58:36.465Z,12.30
2019-02-23T10:01:06.673Z,12.73
2019-02-23T10:03:36.908Z,13.00
2019-02-23T10:06:07.191Z,12.73
2019-02-23T10:08:37.484Z,11.70
2019-02-23T10:11:07.871Z,11.83
2019-02-23T10:13:38.081Z,11.23
2019-02-23T10:16:08.484Z,11.47
2019-02-23T10:18:38.162Z,12.53
2019-02-23T10:21:08.709Z,11.17
2019-02-23T10:23:39.210Z,11.17
2019-02-23T10:26:09.840Z,7.93
2019-02-23T10:28:40.146Z,8.63
2019-02-23T11:30:13.828Z,9.73
2019-02-23T11:32:43.844Z,8.10
2019-02-23T11:35:17.002Z,7.70
2019-02-23T11:37:44.588Z,7.13
2019-02-23T11:40:14.705Z,11.57
2019-02-23T11:42:44.773Z,12.30
2019-02-23T11:45:15.207Z,8.60
2019-02-23T11:47:45.622Z,9.53
2019-02-23T11:50:16.343Z,7.47
2019-02-23T11:52:46.443Z,7.50
2019-02-23T11:55:16.548Z,7.27
2019-02-23T11:57:46.652Z,7.50
2019-02-23T12:00:17.173Z,8.17
2019-02-23T12:02:52.387Z,8.87
2019-02-23T12:05:18.010Z,8.43
2019-02-23T12:07:48.318Z,8.67
2019-02-23T12:10:18.907Z,7.00
2019-02-23T12:12:49.187Z,9.27
2019-02-23T12:15:38.085Z,8.67
2019-02-23T12:18:08.314Z,7.67
2019-02-23T12:20:38.567Z,8.57
2019-02-23T12:23:08.897Z,11.27
2019-02-23T12:25:39.282Z,13.37
2019-02-23T12:28:09.678Z,7.87
2019-02-23T12:30:40.132Z,9.40
2019-02-23T12:33:10.362Z,6.43
2019-02-23T12:35:40.790Z,9.47
2019-02-23T12:38:10.974Z,9.23
2019-02-23T12:40:41.671Z,8.20
2019-02-23T12:43:12.338Z,7.70
2019-02-23T12:45:42.688Z,7.63
2019-02-23T12:48:12.958Z,6.93
2019-02-23T12:50:43.279Z,7.33
2019-02-23T12:53:13.603Z,6.20
2019-02-23T12:55:44.383Z,9.73
2019-02-23T12:58:14.929Z,10.97
2019-02-23T13:00:45.223Z,8.33
2019-02-23T13:03:15.615Z,6.87
2019-02-23T13:05:46.028Z,8.53
2019-02-23T13:08:16.365Z,7.43
2019-02-23T13:10:46.774Z,8.07
2019-02-23T13:13:38.221Z,8.37
2019-02-23T13:16:14.020Z,8.37
2019-02-23T13:19:28.231Z,8.17
2019-02-23T13:22:13.098Z,13.87
2019-02-23T13:24:58.872Z,13.63
2019-02-23T13:29:45.749Z,16.93
2019-02-23T13:32:35.328Z,12.57
2019-02-23T13:35:33.667Z,13.77
2019-02-23T13:38:54.499Z,10.93
2019-02-23T13:41:34.878Z,8.83
2019-02-23T13:44:19.404Z,14.73
2019-02-23T13:46:57.238Z,15.83
2019-02-23T13:49:54.587Z,7.73
2019-02-23T13:52:37.346Z,10.07
2019-02-23T13:57:42.149Z,11.90
2019-02-23T14:00:23.890Z,10.23
2019-02-23T14:03:46.080Z,11.37
2019-02-23T14:06:56.959Z,10.67
2019-02-23T14:09:43.152Z,12.30
2019-02-23T14:14:27.600Z,9.67
2019-02-23T14:17:08.797Z,11.00
2019-02-23T14:30:49.438Z,9.67
2019-02-23T14:33:32.150Z,14.43
2019-02-23T14:37:11.082Z,12.80
2019-02-23T14:39:58.739Z,10.70
2019-02-23T14:42:40.504Z,10.50
2019-02-23T14:45:25.412Z,11.70
2019-02-23T14:48:23.840Z,15.47
2019-02-23T14:51:39.029Z,14.63
2019-02-23T14:54:18.473Z,8.53
2019-02-23T14:57:18.478Z,10.43
2019-02-23T15:00:15.538Z,11.07
2019-02-23T15:04:05.882Z,18.60
2019-02-23T15:07:06.572Z,14.83
2019-02-23T15:09:51.957Z,13.67
2019-02-23T15:12:30.632Z,26.57
2019-02-23T15:15:12.059Z,22.97
2019-02-23T15:19:59.594Z,14.90
2019-02-23T15:22:40.291Z,21.40
2019-02-23T15:26:20.791Z,19.13
2019-02-23T15:29:10.393Z,21.17
2019-02-23T15:33:53.954Z,12.37
2019-02-23T15:36:40.980Z,14.37
2019-02-23T15:40:26.373Z,14.47
2019-02-23T15:44:07.245Z,14.03
2019-02-23T15:46:51.259Z,12.40
2019-02-23T15:49:30.787Z,17.40
2019-02-23T15:52:02.581Z,15.63
2019-02-23T15:54:33.000Z,9.03
2019-02-23T15:57:03.557Z,10.77
2019-02-23T15:59:34.103Z,14.73
2019-02-23T16:02:04.490Z,17.43
2019-02-23T16:04:35.037Z,14.37
2019-02-23T16:07:05.443Z,18.50
2019-02-23T16:09:35.706Z,19.40
2019-02-23T16:12:06.098Z,57.00
2019-02-23T16:14:36.291Z,51.40
2019-02-23T16:17:06.494Z,56.83
2019-02-23T16:19:36.799Z,86.17
2019-02-23T16:22:07.251Z,44.10
2019-02-23T16:24:37.681Z,28.63
2019-02-23T16:27:08.283Z,35.97
2019-02-23T16:29:38.974Z,31.03
2019-02-23T16:32:09.032Z,25.50
2019-02-23T16:34:39.423Z,25.80
2019-02-23T16:37:09.915Z,20.47
2019-02-23T16:39:40.643Z,15.17
2019-02-23T16:42:10.727Z,19.87
2019-02-23T16:44:40.766Z,20.43
2019-02-23T16:47:10.978Z,28.30
2019-02-23T16:49:41.358Z,27.03
2019-02-23T16:52:11.578Z,22.97
2019-02-23T16:54:41.852Z,29.10
2019-02-23T16:57:12.255Z,29.63
2019-02-23T16:59:42.695Z,23.40
2019-02-23T17:02:13.079Z,25.90
2019-02-23T17:04:53.176Z,19.73
2019-02-23T17:07:13.999Z,21.83
2019-02-23T17:09:44.343Z,18.10
2019-02-23T17:12:14.659Z,21.90
2019-02-23T17:14:45.126Z,20.87
2019-02-23T17:17:15.644Z,19.67
2019-02-23T17:19:45.951Z,20.77
2019-02-23T17:22:16.288Z,34.50
2019-02-23T17:24:46.558Z,38.40
2019-02-23T17:27:17.040Z,41.73
2019-02-23T17:29:47.078Z,34.97
2019-02-23T17:32:17.644Z,24.93
2019-02-23T17:34:48.004Z,20.87
2019-02-23T17:37:18.601Z,12.33
2019-02-23T17:39:49.171Z,12.80
2019-02-23T17:42:28.200Z,12.60
2019-02-23T17:44:49.830Z,12.57
2019-02-23T17:47:20.150Z,11.77
2019-02-23T17:49:50.523Z,12.70
2019-02-23T17:52:20.993Z,15.07
2019-02-23T17:54:51.362Z,19.27
2019-02-23T17:57:21.775Z,29.53
2019-02-23T17:59:52.252Z,32.30
2019-02-23T18:02:22.717Z,37.13
2019-02-23T18:04:53.087Z,37.17
2019-02-23T18:07:23.454Z,39.27
2019-02-23T18:09:53.691Z,41.43
2019-02-23T18:12:24.075Z,41.93
2019-02-23T18:14:53.666Z,43.10
2019-02-23T18:17:23.902Z,41.53
2019-02-23T18:19:54.044Z,39.97
2019-02-23T18:22:24.433Z,37.63
2019-02-23T18:25:33.926Z,34.37
2019-02-23T18:28:04.463Z,34.53
2019-02-23T18:30:34.887Z,34.00
2019-02-23T18:33:05.342Z,34.40
2019-02-23T18:35:35.662Z,31.47
2019-02-23T18:38:06.389Z,29.00
2019-02-23T18:40:36.723Z,30.87
2019-02-23T18:43:07.243Z,35.13
2019-02-23T18:45:37.631Z,38.70
2019-02-23T18:48:08.158Z,33.47
2019-02-23T18:51:02.272Z,38.83
2019-02-23T18:53:33.178Z,34.63
2019-02-23T18:56:03.851Z,32.33
2019-02-23T18:58:34.131Z,32.70
2019-02-23T19:01:14.776Z,39.53
2019-02-23T19:04:03.595Z,32.80
2019-02-23T19:06:51.641Z,34.57
2019-02-23T19:09:22.012Z,42.30
2019-02-23T19:11:52.288Z,39.50
2019-02-23T19:16:43.942Z,30.72
2019-02-23T19:19:14.417Z,35.43
2019-02-23T19:21:44.662Z,33.27
2019-02-23T19:24:14.955Z,29.00
2019-02-23T19:26:45.330Z,31.07
2019-02-23T19:29:15.587Z,32.20
2019-02-23T19:31:45.703Z,34.38
2019-02-23T19:34:16.527Z,37.17
2019-02-23T19:36:48.352Z,35.50
2019-02-23T19:39:17.574Z,41.83
2019-02-23T19:41:47.909Z,29.90
2019-02-23T19:44:18.247Z,27.93
2019-02-23T19:47:00.038Z,26.90
2019-02-23T19:49:30.298Z,31.40
2019-02-23T19:52:00.634Z,26.40
2019-02-23T19:54:30.975Z,27.30
2019-02-23T19:57:01.335Z,24.82
2019-02-23T19:59:31.577Z,22.35
2019-02-23T20:02:01.962Z,25.70
2019-02-23T20:04:32.238Z,24.75
2019-02-23T20:07:02.654Z,25.68
2019-02-23T20:09:32.890Z,28.55
2019-02-23T20:12:03.261Z,31.97
2019-02-23T20:14:33.627Z,25.60
2019-02-23T20:17:04.185Z,27.17
2019-02-23T20:19:34.539Z,34.15
2019-02-23T20:22:04.840Z,31.25
2019-02-23T20:24:35.269Z,37.17
2019-02-23T20:27:05.654Z,38.50
2019-02-23T20:29:37.133Z,40.17
2019-02-23T20:32:06.931Z,47.17
2019-02-23T20:34:37.199Z,55.15
2019-02-23T20:37:07.503Z,57.15
2019-02-23T20:39:37.947Z,65.83
2019-02-23T20:42:08.245Z,58.87
2019-02-23T20:44:38.711Z,79.10
2019-02-23T20:47:09.156Z,75.03
2019-02-23T20:49:39.667Z,102.42
2019-02-23T20:52:10.118Z,144.40
2019-02-23T20:54:40.581Z,151.47
2019-02-23T20:57:14.121Z,122.28
2019-02-23T20:59:41.434Z,111.37
2019-02-23T21:05:21.776Z,144.17
2019-02-23T21:07:52.175Z,103.87
2019-02-23T21:10:49.082Z,104.05
2019-02-23T21:14:00.332Z,110.40
2019-02-23T21:16:30.706Z,79.95
2019-02-23T21:19:01.004Z,90.77
2019-02-23T21:21:32.826Z,113.77
2019-02-23T21:24:03.034Z,107.37
2019-02-23T21:26:33.314Z,106.35
2019-02-23T21:29:03.649Z,67.40
2019-02-23T21:31:34.034Z,84.47
2019-02-23T21:34:04.467Z,76.72
2019-02-23T21:36:34.734Z,69.62
2019-02-23T21:39:05.978Z,63.05
2019-02-23T21:41:36.310Z,59.83
2019-02-23T21:44:06.650Z,69.35
2019-02-23T21:46:36.255Z,65.32
2019-02-23T21:49:06.691Z,63.40
2019-02-23T21:51:37.082Z,52.58
2019-02-23T21:54:10.200Z,48.70
2019-02-23T21:56:37.976Z,54.50
2019-02-23T21:59:08.279Z,56.08
2019-02-23T22:01:38.587Z,47.20
2019-02-23T22:04:08.913Z,37.50
2019-02-23T22:06:39.235Z,41.75
2019-02-23T22:09:09.730Z,37.17
2019-02-23T22:11:40.090Z,40.35
2019-02-23T22:14:09.746Z,41.45
2019-02-23T22:16:40.011Z,37.83
2019-02-23T22:19:10.529Z,40.30
2019-02-23T22:21:40.739Z,49.25
2019-02-23T22:24:11.089Z,69.40
2019-02-23T22:26:41.558Z,117.45
2019-02-23T22:29:12.000Z,104.90
2019-02-23T22:31:43.996Z,92.45
2019-02-23T22:34:12.590Z,95.25
2019-02-23T22:36:43.118Z,85.70
2019-02-23T22:39:13.406Z,77.17
2019-02-23T22:41:49.424Z,90.62
2019-02-23T22:44:18.770Z,97.33
2019-02-23T22:46:49.100Z,87.62
2019-02-23T22:49:19.607Z,145.40
2019-02-23T22:51:50.135Z,160.48
2019-02-23T22:54:20.629Z,125.30
2019-02-23T22:56:52.193Z,143.95
2019-02-23T22:59:23.283Z,108.65
2019-02-23T23:01:54.110Z,97.85
2019-02-23T23:04:24.434Z,118.75
2019-02-23T23:06:54.955Z,125.25
2019-02-23T23:09:25.342Z,111.15
2019-02-23T23:11:55.663Z,110.25
2019-02-23T23:14:26.189Z,117.55
2019-02-23T23:16:56.702Z,121.67
2019-02-23T23:19:27.211Z,103.17
2019-02-23T23:21:57.487Z,91.37
2019-02-23T23:24:27.811Z,83.25
2019-02-23T23:26:58.303Z,78.78
2019-02-23T23:29:28.755Z,71.62
2019-02-23T23:31:58.350Z,74.10
2019-02-23T23:34:28.722Z,72.40
2019-02-23T23:36:58.899Z,70.00
2019-02-23T23:39:29.227Z,62.95
2019-02-23T23:41:59.538Z,58.48
2019-02-23T23:44:29.807Z,58.73
2019-02-23T23:47:00.312Z,59.85
2019-02-23T23:49:30.659Z,53.08
2019-02-23T23:52:00.936Z,59.03
2019-02-23T23:54:30.795Z,64.07
2019-02-23T23:57:00.935Z,60.45
2019-02-23T23:59:31.314Z,55.95
